Time;durP1;ratioP1;P1;durP2;ratioP2;P2;SDS_P1;SDS_P2;PMS_P1;PMS_P2;Temp;Humidity;BMP_temperature;BMP_pressure;BME280_temperature;BME280_humidity;BME280_pressure;Samples;Min_cycle;Max_cycle;Signal;HPM_P1;HPM_P2
2021/01/20 00:00:28;;;;;;;6.97;6.33;;;8.60;99.90;;;;;;5019480;28;20231;-49
2021/01/20 00:02:54;;;;;;;6.90;6.30;;;8.60;99.90;;;;;;5019499;28;20243;-48
2021/01/20 00:05:19;;;;;;;6.17;5.43;;;8.50;99.90;;;;;;5024123;28;20692;-48
2021/01/20 00:07:45;;;;;;;9.23;7.83;;;8.50;99.90;;;;;;5015571;28;20186;-53
2021/01/20 00:10:11;;;;;;;8.27;7.20;;;8.50;99.90;;;;;;5009518;28;20271;-48
2021/01/20 00:12:37;;;;;;;8.20;7.40;;;8.60;99.90;;;;;;5021831;28;20238;-52
2021/01/20 00:15:06;;;;;;;8.50;7.70;;;8.60;99.90;;;;;;5017840;28;20223;-48
2021/01/20 00:17:32;;;;;;;9.07;8.20;;;8.50;99.90;;;;;;5018558;28;20660;-53
2021/01/20 00:19:57;;;;;;;9.77;8.20;;;8.50;99.90;;;;;;5020090;28;20408;-48
2021/01/20 00:22:28;;;;;;;8.40;7.37;;;8.60;99.90;;;;;;5021864;28;20693;-50
2021/01/20 00:24:54;;;;;;;15.40;9.00;;;8.50;99.90;;;;;;5006332;28;20266;-53
2021/01/20 00:27:19;;;;;;;9.40;7.80;;;8.60;99.90;;;;;;5023968;28;20557;-49
2021/01/20 00:29:45;;;;;;;8.17;6.63;;;8.50;99.90;;;;;;5020137;28;20180;-54
2021/01/20 00:32:10;;;;;;;6.90;6.20;;;8.50;99.90;;;;;;5019001;28;20724;-51
2021/01/20 00:34:36;;;;;;;8.40;7.50;;;8.50;99.90;;;;;;5021383;28;20262;-52
2021/01/20 00:37:01;;;;;;;7.87;7.07;;;8.50;99.90;;;;;;5021794;28;20904;-49
2021/01/20 00:39:27;;;;;;;7.47;6.77;;;8.50;99.90;;;;;;5023828;28;20195;-49
2021/01/20 00:41:52;;;;;;;9.23;7.00;;;8.40;99.90;;;;;;4999495;28;20242;-48
2021/01/20 00:44:18;;;;;;;9.33;7.37;;;8.40;99.90;;;;;;5023941;28;20200;-51
2021/01/20 00:46:43;;;;;;;7.50;6.27;;;8.40;99.90;;;;;;5016621;28;20206;-52
2021/01/20 00:49:09;;;;;;;8.27;6.97;;;8.40;99.90;;;;;;5021039;28;20191;-52
2021/01/20 00:51:34;;;;;;;10.20;7.70;;;8.40;99.90;;;;;;5014231;28;20226;-53
2021/01/20 00:54:00;;;;;;;8.60;7.00;;;8.40;99.90;;;;;;5020567;28;20192;-50
2021/01/20 00:56:25;;;;;;;9.27;7.80;;;8.30;99.90;;;;;;5009741;28;20261;-48
2021/01/20 00:58:51;;;;;;;8.40;7.13;;;8.30;99.90;;;;;;5019055;28;20179;-54
2021/01/20 01:01:16;;;;;;;7.97;6.90;;;8.20;99.90;;;;;;5022464;28;20625;-49
2021/01/20 01:03:42;;;;;;;7.03;5.90;;;8.20;99.90;;;;;;5014416;28;20212;-51
2021/01/20 01:06:07;;;;;;;10.30;7.47;;;8.20;99.90;;;;;;5020011;28;20204;-49
2021/01/20 01:08:33;;;;;;;9.53;7.10;;;8.10;99.90;;;;;;5017332;28;20195;-53
2021/01/20 01:10:58;;;;;;;8.50;7.60;;;8.10;99.90;;;;;;5020157;28;20172;-51
2021/01/20 01:13:24;;;;;;;8.40;6.87;;;8.10;99.90;;;;;;5009286;28;20291;-50
2021/01/20 01:15:50;;;;;;;10.47;8.00;;;8.00;99.90;;;;;;5017061;28;20184;-53
2021/01/20 01:18:15;;;;;;;9.20;7.73;;;8.00;99.90;;;;;;5023459;28;20238;-48
2021/01/20 01:20:41;;;;;;;9.27;7.30;;;7.90;99.90;;;;;;5014495;28;20229;-55
2021/01/20 01:23:06;;;;;;;14.30;8.60;;;7.80;99.90;;;;;;5021686;28;20200;-50
2021/01/20 01:25:32;;;;;;;11.33;8.93;;;7.80;99.90;;;;;;5022467;28;20200;-53
2021/01/20 01:27:58;;;;;;;10.43;8.50;;;7.70;99.90;;;;;;5006715;28;20188;-52
2021/01/20 01:30:23;;;;;;;11.37;8.73;;;7.70;99.90;;;;;;5022435;28;20184;-50
2021/01/20 01:32:49;;;;;;;11.33;8.43;;;7.70;99.90;;;;;;5018897;28;20357;-50
2021/01/20 01:35:14;;;;;;;10.73;9.00;;;7.70;99.90;;;;;;5018758;28;20200;-48
2021/01/20 01:37:40;;;;;;;11.83;8.83;;;7.60;99.90;;;;;;5018092;28;20200;-48
2021/01/20 01:40:06;;;;;;;13.03;9.80;;;7.60;99.90;;;;;;5021173;28;20195;-50
2021/01/20 01:42:32;;;;;;;12.60;9.60;;;7.60;99.90;;;;;;5018297;28;20673;-50
2021/01/20 01:44:57;;;;;;;14.27;9.80;;;7.50;99.90;;;;;;5007454;28;20224;-50
2021/01/20 01:47:24;;;;;;;13.03;9.67;;;7.50;99.90;;;;;;5026163;28;20187;-48
2021/01/20 01:49:50;;;;;;;14.13;10.47;;;7.50;99.90;;;;;;5013071;28;20195;-50
2021/01/20 01:52:16;;;;;;;14.30;11.07;;;7.50;99.90;;;;;;5026448;28;20182;-48
2021/01/20 01:54:43;;;;;;;16.07;11.30;;;7.50;99.90;;;;;;5023834;28;20204;-53
2021/01/20 01:57:09;;;;;;;9.97;8.20;;;7.50;99.90;;;;;;5024506;28;20645;-48
2021/01/20 01:59:35;;;;;;;15.40;9.67;;;7.50;99.90;;;;;;5010676;28;20205;-50
2021/01/20 02:02:00;;;;;;;16.07;10.90;;;7.50;99.90;;;;;;5024594;28;20176;-48
2021/01/20 02:04:26;;;;;;;14.70;11.03;;;7.40;99.90;;;;;;5026879;28;20677;-48
2021/01/20 02:06:54;;;;;;;13.80;9.93;;;7.50;99.90;;;;;;5017737;28;20207;-48
2021/01/20 02:09:20;;;;;;;14.37;9.93;;;7.50;99.90;;;;;;5025384;28;20218;-46
2021/01/20 02:12:14;;;;;;;14.10;11.27;;;7.40;99.90;;;;;;5028143;28;20196;-53
2021/01/20 02:15:00;;;;;;;12.63;10.00;;;7.40;99.90;;;;;;5012857;28;20215;-46
2021/01/20 02:17:41;;;;;;;15.83;11.73;;;7.40;99.90;;;;;;5020232;28;20310;-47
2021/01/20 02:20:31;;;;;;;13.63;12.07;;;7.40;99.90;;;;;;5017352;28;20173;-51
2021/01/20 02:22:58;;;;;;;16.83;12.27;;;7.30;99.90;;;;;;5018528;28;20242;-54
2021/01/20 02:26:00;;;;;;;21.73;13.83;;;7.30;99.90;;;;;;5024968;28;21013;-46
2021/01/20 02:28:35;;;;;;;17.93;13.20;;;7.30;99.90;;;;;;5025368;28;20201;-47
2021/01/20 02:31:02;;;;;;;15.87;11.83;;;7.20;99.90;;;;;;5010072;28;20196;-55
2021/01/20 02:33:31;;;;;;;15.83;11.90;;;7.20;99.90;;;;;;5025282;28;20196;-46
2021/01/20 02:36:00;;;;;;;15.23;12.57;;;7.20;99.90;;;;;;5018343;28;20195;-54
2021/01/20 02:38:28;;;;;;;17.47;13.33;;;7.20;99.90;;;;;;5023058;28;20693;-50
2021/01/20 02:40:53;;;;;;;18.33;13.77;;;7.20;99.90;;;;;;5023644;28;20192;-54
2021/01/20 02:43:23;;;;;;;19.63;13.83;;;7.10;99.90;;;;;;5023595;28;20952;-50
2021/01/20 02:45:49;;;;;;;17.90;14.27;;;7.10;99.90;;;;;;5007002;28;20215;-51
2021/01/20 02:48:15;;;;;;;17.27;12.57;;;7.10;99.90;;;;;;5020492;28;20194;-51
2021/01/20 02:50:40;;;;;;;16.87;12.97;;;7.10;99.90;;;;;;5026146;28;20210;-55
2021/01/20 02:53:16;;;;;;;18.10;12.77;;;7.00;99.90;;;;;;5014779;28;20216;-56
2021/01/20 02:55:47;;;;;;;19.50;14.93;;;7.00;99.90;;;;;;5025734;28;20270;-51
2021/01/20 02:58:19;;;;;;;19.67;13.97;;;7.00;99.90;;;;;;5021279;28;20375;-46
2021/01/20 03:00:46;;;;;;;20.67;14.40;;;7.00;99.90;;;;;;5009067;28;20199;-49
2021/01/20 03:03:13;;;;;;;24.23;15.83;;;6.90;99.90;;;;;;5018062;28;20610;-50
2021/01/20 03:05:41;;;;;;;20.70;15.03;;;6.90;99.90;;;;;;5025667;28;20200;-48
2021/01/20 03:08:08;;;;;;;16.30;12.73;;;6.90;99.90;;;;;;5017305;28;20219;-51
2021/01/20 03:10:34;;;;;;;24.30;16.03;;;6.90;99.90;;;;;;5024963;28;20184;-51
2021/01/20 03:12:59;;;;;;;25.80;15.93;;;6.90;99.90;;;;;;5022842;28;20180;-53
2021/01/20 03:15:32;;;;;;;22.20;15.63;;;6.80;99.90;;;;;;5008449;28;20195;-49
2021/01/20 03:17:58;;;;;;;19.73;14.63;;;6.80;99.90;;;;;;5015528;28;20180;-54
2021/01/20 03:20:23;;;;;;;20.90;15.10;;;6.80;99.90;;;;;;5023635;28;20194;-48
2021/01/20 03:22:49;;;;;;;22.13;15.30;;;6.80;99.90;;;;;;5020509;28;20192;-50
2021/01/20 03:25:14;;;;;;;22.40;16.17;;;6.70;99.90;;;;;;5021720;28;20853;-50
2021/01/20 03:27:40;;;;;;;25.00;16.27;;;6.70;99.90;;;;;;5023623;28;20198;-47
2021/01/20 03:30:06;;;;;;;23.60;13.93;;;6.70;99.90;;;;;;5020802;28;20172;-51
2021/01/20 03:32:32;;;;;;;21.80;15.00;;;6.70;99.90;;;;;;5008229;28;20203;-49
2021/01/20 03:34:57;;;;;;;23.97;15.70;;;6.70;99.90;;;;;;5022973;28;20208;-48
2021/01/20 03:37:23;;;;;;;21.80;14.43;;;6.70;99.90;;;;;;5023875;28;20180;-53
2021/01/20 03:39:49;;;;;;;26.93;14.30;;;6.60;99.90;;;;;;5016024;28;20521;-50
2021/01/20 03:42:14;;;;;;;24.73;13.00;;;6.60;99.90;;;;;;5023971;28;20184;-55
2021/01/20 03:44:40;;;;;;;21.13;14.03;;;6.60;99.90;;;;;;5021930;28;20289;-49
2021/01/20 03:47:05;;;;;;;20.53;13.60;;;6.60;99.90;;;;;;4995203;28;20551;-48
2021/01/20 03:49:31;;;;;;;21.80;14.50;;;6.60;99.90;;;;;;5019099;28;20180;-52
2021/01/20 03:51:56;;;;;;;21.27;13.37;;;6.60;99.90;;;;;;5025166;28;20184;-52
2021/01/20 03:54:22;;;;;;;16.97;12.83;;;6.50;99.90;;;;;;5017251;28;20208;-53
2021/01/20 03:56:47;;;;;;;19.97;13.97;;;6.50;99.90;;;;;;5019530;28;20180;-52
2021/01/20 03:59:13;;;;;;;19.07;13.73;;;6.50;99.90;;;;;;5019160;28;20271;-56
2021/01/20 04:01:38;;;;;;;20.47;14.40;;;6.50;99.90;;;;;;5016535;28;20922;-53
2021/01/20 04:04:04;;;;;;;21.07;12.80;;;6.50;99.90;;;;;;5011234;28;20212;-51
2021/01/20 04:06:29;;;;;;;22.20;14.23;;;6.50;99.90;;;;;;5020317;28;20235;-49
2021/01/20 04:08:54;;;;;;;16.97;12.53;;;6.50;99.90;;;;;;5024412;28;20176;-48
2021/01/20 04:11:20;;;;;;;18.70;12.57;;;6.50;99.90;;;;;;5017278;28;20180;-52
2021/01/20 04:13:47;;;;;;;17.30;11.60;;;6.40;99.90;;;;;;5023032;28;20958;-48
2021/01/20 04:16:12;;;;;;;21.23;12.70;;;6.40;99.90;;;;;;5018449;28;20188;-52
2021/01/20 04:18:38;;;;;;;15.53;12.27;;;6.40;99.90;;;;;;5007525;28;20200;-55
2021/01/20 04:21:04;;;;;;;19.87;12.63;;;6.40;99.90;;;;;;5023995;28;20266;-46
2021/01/20 04:23:29;;;;;;;30.23;14.83;;;6.40;99.90;;;;;;5017933;28;20215;-46
2021/01/20 04:25:55;;;;;;;20.70;13.07;;;6.40;99.90;;;;;;5018788;28;20219;-52
2021/01/20 04:28:20;;;;;;;18.37;12.53;;;6.40;99.90;;;;;;5022045;28;20176;-51
2021/01/20 04:30:46;;;;;;;25.73;14.80;;;6.40;99.90;;;;;;5016383;28;20214;-52
2021/01/20 04:33:11;;;;;;;26.67;15.03;;;6.40;99.90;;;;;;5023678;28;20200;-51
2021/01/20 04:35:37;;;;;;;20.10;12.57;;;6.40;99.90;;;;;;5005428;28;20219;-53
2021/01/20 04:38:03;;;;;;;18.23;12.87;;;6.40;99.90;;;;;;5023825;28;20202;-47
2021/01/20 04:40:28;;;;;;;22.00;13.67;;;6.40;99.90;;;;;;5014835;28;20216;-56
2021/01/20 04:42:55;;;;;;;26.90;14.10;;;6.40;99.90;;;;;;5014486;28;20645;-51
2021/01/20 04:45:22;;;;;;;17.37;13.10;;;6.40;99.90;;;;;;5021171;28;20550;-52
2021/01/20 04:47:50;;;;;;;25.57;14.50;;;6.40;99.90;;;;;;5022587;28;20184;-48
2021/01/20 04:50:19;;;;;;;16.67;10.63;;;6.40;99.90;;;;;;5011620;28;20198;-53
2021/01/20 04:52:46;;;;;;;20.87;13.93;;;6.40;99.90;;;;;;5013335;28;20191;-51
2021/01/20 04:55:13;;;;;;;15.47;12.43;;;6.40;99.90;;;;;;5022085;28;20680;-51
2021/01/20 04:57:39;;;;;;;16.23;12.23;;;6.40;99.90;;;;;;5014046;28;20188;-50
2021/01/20 05:00:06;;;;;;;18.40;13.23;;;6.40;99.90;;;;;;5023148;28;20192;-52
2021/01/20 05:02:33;;;;;;;19.70;13.23;;;6.40;99.90;;;;;;5014758;28;20241;-50
2021/01/20 05:05:00;;;;;;;21.63;12.97;;;6.40;99.90;;;;;;5023532;28;20220;-50
2021/01/20 05:07:27;;;;;;;20.23;12.97;;;6.40;99.90;;;;;;5004191;28;20193;-50
2021/01/20 05:09:52;;;;;;;10.90;9.50;;;6.50;99.90;;;;;;5022929;28;20246;-50
2021/01/20 05:12:41;;;;;;;14.60;11.10;;;6.40;99.90;;;;;;5017108;28;20184;-48
2021/01/20 05:15:09;;;;;;;21.30;14.13;;;6.40;99.90;;;;;;5022816;28;20570;-53
2021/01/20 05:17:36;;;;;;;24.07;12.73;;;6.50;99.90;;;;;;5019901;28;20187;-51
2021/01/20 05:20:03;;;;;;;13.23;10.70;;;6.50;99.90;;;;;;5021814;28;20204;-52
2021/01/20 05:22:30;;;;;;;16.57;11.07;;;6.50;99.90;;;;;;5006467;28;20188;-54
2021/01/20 05:25:03;;;;;;;18.17;11.03;;;6.50;99.90;;;;;;5021229;28;20195;-49
2021/01/20 05:27:30;;;;;;;13.23;10.87;;;6.50;99.90;;;;;;5009324;28;20783;-49
2021/01/20 05:30:00;;;;;;;14.13;9.90;;;6.50;99.90;;;;;;5023202;28;20271;-53
2021/01/20 05:32:26;;;;;;;14.77;9.87;;;6.50;99.90;;;;;;5019643;28;20176;-51
2021/01/20 05:35:06;;;;;;;17.33;10.10;;;6.50;99.90;;;;;;5021096;28;20204;-54
2021/01/20 05:37:42;;;;;;;17.07;11.17;;;6.50;99.90;;;;;;5019276;28;20241;-50
2021/01/20 05:40:16;;;;;;;21.57;11.27;;;6.50;99.90;;;;;;5001692;28;20187;-50
2021/01/20 05:42:42;;;;;;;22.90;10.73;;;6.50;99.90;;;;;;5011860;28;20192;-48
2021/01/20 05:45:08;;;;;;;27.00;11.43;;;6.50;99.90;;;;;;5022853;28;20208;-53
2021/01/20 05:47:34;;;;;;;17.80;9.60;;;6.50;99.90;;;;;;5009581;28;20264;-54
2021/01/20 05:50:07;;;;;;;24.23;10.47;;;6.50;99.90;;;;;;5015864;28;20681;-51
2021/01/20 05:52:33;;;;;;;15.63;9.03;;;6.50;99.90;;;;;;5014616;28;20179;-53
2021/01/20 05:55:10;;;;;;;18.17;9.07;;;6.50;99.90;;;;;;5009354;28;20204;-52
2021/01/20 05:57:35;;;;;;;20.07;10.17;;;6.50;99.90;;;;;;5013262;28;20179;-56
2021/01/20 06:00:14;;;;;;;21.50;10.07;;;6.50;99.90;;;;;;5017383;28;20192;-52
2021/01/20 06:02:41;;;;;;;11.90;8.13;;;6.50;99.90;;;;;;5013468;28;20715;-48
2021/01/20 06:05:08;;;;;;;8.97;6.93;;;6.50;99.90;;;;;;5010925;28;20281;-57
2021/01/20 06:07:36;;;;;;;15.87;6.77;;;6.40;99.90;;;;;;5008535;28;20589;-57
2021/01/20 06:10:03;;;;;;;18.70;9.73;;;6.50;99.90;;;;;;5005726;28;20191;-47
2021/01/20 06:12:28;;;;;;;30.47;12.97;;;6.50;99.90;;;;;;5016478;28;20540;-53
2021/01/20 06:14:54;;;;;;;26.00;11.27;;;6.50;99.90;;;;;;5011932;28;20247;-52
2021/01/20 06:17:21;;;;;;;14.07;7.93;;;6.50;99.90;;;;;;5018018;28;20194;-51
2021/01/20 06:19:49;;;;;;;19.33;9.13;;;6.40;99.90;;;;;;5007631;28;20184;-52
2021/01/20 06:22:17;;;;;;;12.33;8.60;;;6.40;99.90;;;;;;5018805;28;20192;-50
2021/01/20 06:24:48;;;;;;;16.47;8.67;;;6.40;99.90;;;;;;5006995;28;20886;-50
2021/01/20 06:27:27;;;;;;;21.80;9.17;;;6.40;99.90;;;;;;5005337;28;20866;-54
2021/01/20 06:29:59;;;;;;;16.87;8.43;;;6.40;99.90;;;;;;5015766;28;20241;-46
2021/01/20 06:32:26;;;;;;;15.80;8.47;;;6.40;99.90;;;;;;5013980;28;20186;-55
2021/01/20 06:34:56;;;;;;;14.63;8.53;;;6.40;99.90;;;;;;5026084;28;20192;-50
2021/01/20 06:37:45;;;;;;;13.10;8.17;;;6.40;99.90;;;;;;5014889;28;20659;-55
2021/01/20 06:40:22;;;;;;;18.90;8.10;;;6.30;99.90;;;;;;5018454;28;20188;-52
2021/01/20 06:42:49;;;;;;;13.63;6.97;;;6.40;99.90;;;;;;5011632;28;20193;-49
2021/01/20 06:45:18;;;;;;;13.77;7.10;;;6.30;99.90;;;;;;5021876;28;20227;-51
2021/01/20 06:47:59;;;;;;;15.50;7.60;;;6.30;99.90;;;;;;4993903;28;20681;-48
2021/01/20 06:50:29;;;;;;;12.20;8.00;;;6.30;99.90;;;;;;5021863;28;20191;-49
2021/01/20 06:53:08;;;;;;;19.67;8.53;;;6.30;99.90;;;;;;5015548;28;20198;-51
2021/01/20 06:55:34;;;;;;;12.93;7.07;;;6.30;99.90;;;;;;5016447;28;20192;-50
2021/01/20 06:58:26;;;;;;;14.03;7.47;;;6.30;99.90;;;;;;5009603;28;20203;-51
2021/01/20 07:01:01;;;;;;;24.97;9.83;;;6.30;99.90;;;;;;5025800;28;20192;-52
2021/01/20 07:03:47;;;;;;;17.70;8.13;;;6.30;99.90;;;;;;5018062;28;20297;-51
2021/01/20 07:06:39;;;;;;;13.93;6.60;;;6.30;99.90;;;;;;5021461;28;20291;-50
2021/01/20 07:09:05;;;;;;;15.70;8.07;;;6.30;99.90;;;;;;5015076;28;20195;-50
2021/01/20 07:11:31;;;;;;;10.27;6.33;;;6.30;99.90;;;;;;5019411;28;20173;-55
2021/01/20 07:13:57;;;;;;;10.50;6.10;;;6.30;99.90;;;;;;5012523;28;20699;-51
2021/01/20 07:16:23;;;;;;;10.60;6.40;;;6.30;99.90;;;;;;5016603;28;20184;-53
2021/01/20 07:18:51;;;;;;;12.90;7.07;;;6.30;99.90;;;;;;5025547;28;20287;-51
2021/01/20 07:21:17;;;;;;;10.57;6.07;;;6.30;99.90;;;;;;5021912;28;20249;-51
2021/01/20 07:23:43;;;;;;;17.60;7.63;;;6.30;99.90;;;;;;5015878;28;20665;-50
2021/01/20 07:26:09;;;;;;;11.20;6.50;;;6.30;99.90;;;;;;5025980;28;20220;-55
2021/01/20 07:28:36;;;;;;;15.27;6.83;;;6.30;99.90;;;;;;5001143;28;21328;-54
2021/01/20 07:31:03;;;;;;;6.80;5.70;;;6.30;99.90;;;;;;5021041;28;20758;-58
2021/01/20 07:33:29;;;;;;;15.67;7.33;;;6.30;99.90;;;;;;5014854;28;20290;-50
2021/01/20 07:35:54;;;;;;;13.70;7.17;;;6.30;99.90;;;;;;5025168;28;20334;-52
2021/01/20 07:38:20;;;;;;;8.90;5.50;;;6.30;99.90;;;;;;5016912;28;20271;-52
2021/01/20 07:40:45;;;;;;;13.83;6.63;;;6.30;99.90;;;;;;5020170;28;20318;-50
2021/01/20 07:43:21;;;;;;;11.63;6.13;;;6.30;99.90;;;;;;5018449;28;20220;-49
2021/01/20 07:45:47;;;;;;;12.10;7.43;;;6.30;99.90;;;;;;5012004;28;20207;-53
2021/01/20 07:48:13;;;;;;;12.73;7.27;;;6.30;99.90;;;;;;5017733;28;20192;-53
2021/01/20 07:50:48;;;;;;;9.13;6.27;;;6.30;99.90;;;;;;5023197;28;20254;-46
2021/01/20 07:53:17;;;;;;;11.10;7.43;;;6.40;99.90;;;;;;5011286;28;20227;-56
2021/01/20 07:55:44;;;;;;;9.33;6.03;;;6.40;99.90;;;;;;5018426;28;20192;-53
2021/01/20 07:58:10;;;;;;;10.63;6.30;;;6.40;99.90;;;;;;5017951;28;20212;-50
2021/01/20 08:00:48;;;;;;;8.93;6.00;;;6.50;99.90;;;;;;5005461;28;20275;-55
2021/01/20 08:03:15;;;;;;;10.37;6.37;;;6.50;99.90;;;;;;5015077;28;20310;-51
2021/01/20 08:05:45;;;;;;;23.73;8.13;;;6.50;99.90;;;;;;5021675;28;20219;-51
2021/01/20 08:08:14;;;;;;;9.90;7.00;;;6.60;99.90;;;;;;5020806;28;20335;-52
2021/01/20 08:10:42;;;;;;;15.87;7.97;;;6.60;99.90;;;;;;5012114;28;20275;-51
2021/01/20 08:13:12;;;;;;;10.87;5.97;;;6.60;99.90;;;;;;5022308;28;20196;-49
2021/01/20 08:15:39;;;;;;;15.83;7.00;;;6.60;99.90;;;;;;5004173;28;20271;-53
2021/01/20 08:18:07;;;;;;;6.97;5.47;;;6.70;99.90;;;;;;5023271;28;20653;-52
2021/01/20 08:20:33;;;;;;;12.03;6.93;;;6.70;99.90;;;;;;5017814;28;20218;-50
2021/01/20 08:23:00;;;;;;;11.10;6.80;;;6.70;99.90;;;;;;5024560;28;20196;-54
2021/01/20 08:25:26;;;;;;;16.80;7.13;;;6.80;99.90;;;;;;5016437;28;20203;-49
2021/01/20 08:27:51;;;;;;;12.60;5.83;;;6.80;99.90;;;;;;5019499;28;20203;-49
2021/01/20 08:30:33;;;;;;;11.87;6.07;;;6.80;99.90;;;;;;5004515;28;20188;-49
2021/01/20 08:32:59;;;;;;;12.30;5.97;;;6.90;99.90;;;;;;5020107;28;20184;-51
2021/01/20 08:35:43;;;;;;;8.63;4.90;;;6.90;99.90;;;;;;5013064;28;20917;-52
2021/01/20 08:38:26;;;;;;;8.57;5.30;;;7.00;99.90;;;;;;5021638;28;20184;-53
2021/01/20 08:41:12;;;;;;;8.33;5.07;;;7.00;99.90;;;;;;5019740;28;20196;-48
2021/01/20 08:43:38;;;;;;;10.73;5.23;;;7.10;99.90;;;;;;5018419;28;20207;-47
2021/01/20 08:46:25;;;;;;;8.77;5.17;;;7.10;99.90;;;;;;5005447;28;20214;-50
2021/01/20 08:48:55;;;;;;;8.80;5.17;;;7.10;99.90;;;;;;5018563;28;20198;-49
2021/01/20 08:51:21;;;;;;;8.63;4.80;;;7.20;99.90;;;;;;5012278;28;20211;-50
2021/01/20 08:53:46;;;;;;;11.33;5.23;;;7.20;99.90;;;;;;5023247;28;20235;-48
2021/01/20 08:56:12;;;;;;;11.43;5.10;;;7.30;99.90;;;;;;5016272;28;20190;-51
2021/01/20 08:58:37;;;;;;;9.17;4.47;;;7.30;99.90;;;;;;5015127;28;20976;-51
2021/01/20 09:01:09;;;;;;;9.97;5.33;;;7.30;99.90;;;;;;4993105;28;20235;-49
2021/01/20 09:03:38;;;;;;;7.60;4.30;;;7.40;99.90;;;;;;5016098;28;20619;-50
2021/01/20 09:06:05;;;;;;;10.87;5.57;;;7.40;99.90;;;;;;5016130;28;20204;-51
2021/01/20 09:08:35;;;;;;;9.47;4.77;;;7.40;99.90;;;;;;5022335;28;20238;-50
2021/01/20 09:11:01;;;;;;;7.77;4.33;;;7.50;99.90;;;;;;5014547;28;20189;-50
2021/01/20 09:13:27;;;;;;;6.10;3.77;;;7.50;99.90;;;;;;5018316;28;20226;-48
2021/01/20 09:15:54;;;;;;;7.33;4.23;;;7.60;99.90;;;;;;5005796;28;20203;-51
2021/01/20 09:18:21;;;;;;;6.20;4.40;;;7.60;99.90;;;;;;5023235;28;20193;-50
2021/01/20 09:20:47;;;;;;;13.30;5.20;;;7.70;99.90;;;;;;5019849;28;20180;-52
2021/01/20 09:23:13;;;;;;;5.97;3.30;;;7.70;99.90;;;;;;5018054;28;20207;-51
2021/01/20 09:25:40;;;;;;;7.13;3.63;;;7.80;99.90;;;;;;5021377;28;20676;-54
2021/01/20 09:28:06;;;;;;;9.73;4.03;;;7.80;99.90;;;;;;5012307;28;20184;-49
2021/01/20 09:30:32;;;;;;;6.53;3.83;;;7.90;99.90;;;;;;5014772;28;20182;-57
2021/01/20 09:32:58;;;;;;;7.17;3.93;;;7.90;99.90;;;;;;5008042;28;20184;-48
2021/01/20 09:35:24;;;;;;;4.27;2.80;;;8.00;99.90;;;;;;5022867;28;20169;-49
2021/01/20 09:37:52;;;;;;;4.13;2.70;;;8.10;99.90;;;;;;5015147;28;20320;-52
2021/01/20 09:40:20;;;;;;;4.57;2.90;;;8.10;99.90;;;;;;5021522;28;20192;-49
2021/01/20 09:42:47;;;;;;;3.70;2.87;;;8.20;99.90;;;;;;5015489;28;20192;-55
2021/01/20 09:45:14;;;;;;;4.80;3.47;;;8.20;99.90;;;;;;5015379;28;20219;-50
2021/01/20 09:47:42;;;;;;;6.33;3.77;;;8.20;99.90;;;;;;5007090;28;20261;-55
2021/01/20 09:50:10;;;;;;;4.00;3.00;;;8.30;99.90;;;;;;5017456;28;20199;-52
2021/01/20 09:52:35;;;;;;;3.07;2.70;;;8.30;99.90;;;;;;5015423;28;20194;-52
2021/01/20 09:55:02;;;;;;;3.63;2.57;;;8.40;99.90;;;;;;5013059;28;20196;-53
2021/01/20 09:57:28;;;;;;;5.53;3.10;;;8.40;99.90;;;;;;5022882;28;20176;-46
2021/01/20 09:59:53;;;;;;;5.50;3.20;;;8.50;99.90;;;;;;5005487;28;21673;-51
2021/01/20 10:02:19;;;;;;;4.20;2.33;;;8.50;99.90;;;;;;5009796;28;20262;-48
2021/01/20 10:04:45;;;;;;;3.20;2.90;;;8.50;99.90;;;;;;5023193;28;20883;-54
2021/01/20 10:07:14;;;;;;;3.57;2.87;;;8.60;99.90;;;;;;5021899;28;20262;-50
2021/01/20 10:09:40;;;;;;;7.30;3.73;;;8.60;99.90;;;;;;5020765;28;20183;-53
2021/01/20 10:12:08;;;;;;;6.23;2.73;;;8.70;99.90;;;;;;5016694;28;20243;-50
2021/01/20 10:14:34;;;;;;;6.90;3.63;;;8.70;99.90;;;;;;5018351;28;20209;-55
2021/01/20 10:17:00;;;;;;;6.33;3.67;;;8.80;99.90;;;;;;5016026;28;20249;-55
2021/01/20 10:19:25;;;;;;;3.60;2.70;;;8.80;99.90;;;;;;5008852;28;20215;-58
2021/01/20 10:21:50;;;;;;;8.90;3.97;;;8.90;99.90;;;;;;5021380;28;20289;-55
2021/01/20 10:24:16;;;;;;;4.57;3.03;;;8.90;99.90;;;;;;5025119;28;20657;-52
2021/01/20 10:26:41;;;;;;;2.83;2.57;;;8.90;99.90;;;;;;5019326;28;20298;-52
2021/01/20 10:29:07;;;;;;;7.37;3.33;;;8.90;99.90;;;;;;5023792;28;20245;-58
2021/01/20 10:31:35;;;;;;;4.03;3.07;;;8.90;99.90;;;;;;5020524;28;20184;-57
2021/01/20 10:34:01;;;;;;;3.57;2.43;;;8.90;99.90;;;;;;5009399;28;20193;-56
2021/01/20 10:36:27;;;;;;;7.57;3.50;;;8.90;99.90;;;;;;5025276;28;20679;-55
2021/01/20 10:38:53;;;;;;;8.63;3.10;;;8.90;99.90;;;;;;5021647;28;20246;-57
2021/01/20 10:41:23;;;;;;;4.10;3.03;;;8.80;99.90;;;;;;5018617;28;20184;-58
2021/01/20 10:43:50;;;;;;;4.77;2.60;;;8.80;99.90;;;;;;5018842;28;20300;-54
2021/01/20 10:46:17;;;;;;;3.70;2.43;;;8.70;99.90;;;;;;5019619;28;20330;-56
2021/01/20 10:48:43;;;;;;;4.53;3.37;;;8.60;99.90;;;;;;4996006;28;20626;-54
2021/01/20 10:51:12;;;;;;;7.60;3.70;;;8.60;99.90;;;;;;5020100;28;20172;-53
2021/01/20 10:53:41;;;;;;;2.87;2.57;;;8.60;99.90;;;;;;5023419;28;20204;-50
2021/01/20 10:56:07;;;;;;;5.33;3.00;;;8.60;99.90;;;;;;5019488;28;20176;-55
2021/01/20 10:58:33;;;;;;;6.70;3.03;;;8.60;99.90;;;;;;5013801;28;20191;-57
2021/01/20 11:01:00;;;;;;;6.00;3.57;;;8.60;99.90;;;;;;5012326;28;20211;-54
2021/01/20 11:03:25;;;;;;;2.60;2.40;;;8.60;99.90;;;;;;5025613;28;20718;-57
2021/01/20 11:05:51;;;;;;;5.07;2.70;;;8.60;99.90;;;;;;5001771;28;20203;-56
2021/01/20 11:08:16;;;;;;;6.93;3.30;;;8.60;99.90;;;;;;5022665;28;20180;-57
2021/01/20 11:10:42;;;;;;;10.07;4.47;;;8.60;99.90;;;;;;5020828;28;20266;-51
2021/01/20 11:13:07;;;;;;;6.27;3.33;;;8.60;99.90;;;;;;5017364;28;20199;-58
2021/01/20 11:15:38;;;;;;;3.37;2.70;;;8.70;99.90;;;;;;5019946;28;20275;-55
2021/01/20 11:18:04;;;;;;;4.60;3.10;;;8.60;99.90;;;;;;5014897;28;20303;-57
2021/01/20 11:20:30;;;;;;;5.53;2.90;;;8.70;99.90;;;;;;5011198;28;20227;-53
2021/01/20 11:22:56;;;;;;;3.97;2.37;;;8.70;99.90;;;;;;5020095;28;20819;-48
2021/01/20 11:25:21;;;;;;;2.50;2.03;;;8.70;99.90;;;;;;5024683;28;20723;-50
2021/01/20 11:27:47;;;;;;;8.47;4.43;;;8.70;99.90;;;;;;5018297;28;20219;-59
2021/01/20 11:30:13;;;;;;;10.37;4.77;;;8.80;99.90;;;;;;5023022;28;20210;-49
2021/01/20 11:32:38;;;;;;;3.63;2.73;;;8.80;99.90;;;;;;5012097;28;20177;-58
2021/01/20 11:35:04;;;;;;;5.90;4.00;;;8.80;99.90;;;;;;5001149;28;20204;-52
2021/01/20 11:37:30;;;;;;;5.03;3.27;;;8.90;99.90;;;;;;5024467;28;20897;-46
2021/01/20 11:39:58;;;;;;;6.97;4.83;;;8.90;99.90;;;;;;5020641;28;20172;-44
2021/01/20 11:42:24;;;;;;;14.07;10.00;;;9.00;99.90;;;;;;5024134;28;20517;-49
2021/01/20 11:44:49;;;;;;;4.87;4.23;;;9.00;99.90;;;;;;5016199;28;20315;-52
2021/01/20 11:47:15;;;;;;;12.47;10.07;;;9.00;99.90;;;;;;5024557;28;20212;-48
2021/01/20 11:49:40;;;;;;;21.53;16.87;;;9.10;99.90;;;;;;5010809;28;20196;-50
2021/01/20 11:52:05;;;;;;;18.03;7.67;;;9.10;99.90;;;;;;5016680;28;20194;-47
2021/01/20 11:54:32;;;;;;;5.07;2.83;;;9.10;99.90;;;;;;5024194;28;20196;-53
2021/01/20 11:56:57;;;;;;;7.60;3.50;;;9.10;99.90;;;;;;5021026;28;20211;-47
2021/01/20 11:59:22;;;;;;;4.07;2.67;;;9.20;99.90;;;;;;5024584;28;20652;-48
2021/01/20 12:01:48;;;;;;;7.47;3.47;;;9.20;99.90;;;;;;5015292;28;20191;-52
2021/01/20 12:04:13;;;;;;;2.37;1.83;;;9.20;99.90;;;;;;5017672;28;20215;-47
2021/01/20 12:06:39;;;;;;;3.57;2.43;;;9.20;99.90;;;;;;5008048;28;20211;-52
2021/01/20 12:09:04;;;;;;;2.60;2.20;;;9.30;99.90;;;;;;5022135;28;20258;-48
2021/01/20 12:11:30;;;;;;;2.73;2.20;;;9.30;99.90;;;;;;5024295;28;20212;-49
2021/01/20 12:13:55;;;;;;;4.23;3.13;;;9.30;99.90;;;;;;5018600;28;20267;-50
2021/01/20 12:16:21;;;;;;;2.23;2.00;;;9.40;99.90;;;;;;5018885;28;20230;-51
2021/01/20 12:18:46;;;;;;;5.50;3.20;;;9.40;99.90;;;;;;5020578;28;20188;-54
2021/01/20 12:21:13;;;;;;;2.00;1.80;;;9.40;99.90;;;;;;5008902;28;20204;-47
2021/01/20 12:23:38;;;;;;;3.30;2.57;;;9.40;99.90;;;;;;5022384;28;20207;-55
2021/01/20 12:26:03;;;;;;;2.10;1.90;;;9.40;99.90;;;;;;5019459;28;20200;-49
2021/01/20 12:28:29;;;;;;;3.03;1.97;;;9.50;99.90;;;;;;5025740;28;20216;-54
2021/01/20 12:30:54;;;;;;;4.33;2.57;;;9.40;99.90;;;;;;5018262;28;20898;-55
2021/01/20 12:33:20;;;;;;;2.43;1.87;;;9.40;99.90;;;;;;5016964;28;20219;-56
2021/01/20 12:35:45;;;;;;;2.70;2.27;;;9.40;99.90;;;;;;5002785;28;20196;-58
2021/01/20 12:38:11;;;;;;;3.10;1.97;;;9.40;99.90;;;;;;5018128;28;20187;-49
2021/01/20 12:40:36;;;;;;;2.37;2.13;;;9.40;99.90;;;;;;5020190;28;20266;-52
2021/01/20 12:43:03;;;;;;;2.40;2.03;;;9.50;99.90;;;;;;5026719;28;20917;-50
2021/01/20 12:45:28;;;;;;;4.23;2.13;;;9.50;99.90;;;;;;5023225;28;20301;-52
2021/01/20 12:47:56;;;;;;;3.30;2.60;;;9.50;99.90;;;;;;5012974;28;21142;-54
2021/01/20 12:50:23;;;;;;;4.20;2.10;;;9.50;99.90;;;;;;5022128;28;20184;-52